Airfield :
LOGIN :

Register | Disclaimer

   EN    FR    IT 

 










Legend :    VFR   Marginal VFR   IFR   Intensive IFR   Very Intensive IFR
Visi :
Ceiling :
>= 8 km
>= 3000ft
5 to 8 km
1000 to 3000 ft
1500m to 5 km
500 to 1000 ft
800 to 1500m
200 to 500 ft
< 800m
< 200 ft
Symbols :   Thunderstorms  Fog  Heavy snow  Heavy precipitations  Wind > 20 kt
SIGMETs :     Misc.  Thunderstorms  Icing  Turbulence  Mountain Waves  Volcanic Ashes






- Airport Elevation : 143 ft
- IATA code : VDP


EKVD - Kolding Vamdrup

CURRENT METAR :
  • 140720Z AUTO 15008KT //// ///////// 03/03 Q0977

EXPIRED METARs :
  • 140650Z AUTO 15008KT //// ///////// 03/03 Q0977
  • 140620Z AUTO 15007KT //// ///////// 02/02 Q0977
  • 140550Z AUTO 15007KT //// ///////// 02/02 Q0977
  • 140520Z AUTO 14007KT //// ///////// 02/02 Q0978
  • 140450Z AUTO 14007KT //// ///////// 01/01 Q0978

Expired Forecast.



MET'MAP, your aeronautical weather chart ! - Copyright ORBIFLY December 2007 - Disclaimer

ORBIFLY MET'MAP TEAM :

Programming & Development : Alexandra Zaïnal
Concept & original design : Baudouin d'Aumeries
Assistance for programming : Marc-Olivier Méhu
Technical & hardware support : Manuel Goepfert

Contact : metmap@orbifly.com




SOURCES & CREDITS :

   NOAA